createdAt,value
2023-06-11T00:01:53.544Z,96.14
2023-06-11T00:04:25.951Z,96.25
2023-06-11T00:06:57.964Z,96.21
2023-06-11T00:09:24.935Z,97.37
2023-06-11T00:11:53.856Z,98.14
2023-06-11T00:14:21.756Z,97.22
2023-06-11T00:16:48.261Z,100.00
2023-06-11T00:19:14.997Z,99.56
2023-06-11T00:21:47.948Z,98.62
2023-06-11T00:24:15.638Z,96.53
2023-06-11T00:26:43.260Z,97.58
2023-06-11T00:29:10.323Z,97.41
2023-06-11T00:31:37.240Z,97.95
2023-06-11T00:34:05.066Z,97.58
2023-06-11T00:36:31.735Z,97.87
2023-06-11T00:38:59.381Z,97.99
2023-06-11T00:41:25.925Z,98.71
2023-06-11T00:43:55.566Z,99.37
2023-06-11T00:46:23.223Z,99.01
2023-06-11T00:48:51.420Z,99.92
2023-06-11T00:51:25.142Z,99.90
2023-06-11T00:53:55.466Z,99.35
2023-06-11T00:56:22.246Z,100.00
2023-06-11T00:58:52.518Z,99.90
2023-06-11T01:01:30.578Z,100.00
2023-06-11T01:04:01.872Z,100.00
2023-06-11T01:06:34.247Z,100.00
2023-06-11T01:09:02.261Z,100.00
2023-06-11T01:11:30.505Z,99.68
2023-06-11T01:13:57.057Z,100.00
2023-06-11T01:16:38.212Z,99.04
2023-06-11T01:19:38.447Z,100.00
2023-06-11T01:22:14.387Z,99.77
2023-06-11T01:25:13.379Z,100.00
2023-06-11T01:27:58.175Z,99.04
2023-06-11T01:30:25.267Z,100.00
2023-06-11T01:32:54.418Z,99.54
2023-06-11T01:35:21.732Z,99.64
2023-06-11T01:37:56.334Z,100.00
2023-06-11T01:40:32.988Z,100.00
2023-06-11T01:42:59.559Z,99.72
2023-06-11T01:45:28.409Z,100.00
2023-06-11T01:47:55.050Z,100.00
2023-06-11T01:50:21.805Z,100.00
2023-06-11T01:52:48.546Z,99.33
2023-06-11T01:55:16.014Z,98.70
2023-06-11T01:57:42.771Z,99.07
2023-06-11T02:00:12.121Z,99.11
2023-06-11T02:02:40.872Z,99.13
2023-06-11T02:05:08.375Z,100.00
2023-06-11T02:07:35.004Z,100.00
2023-06-11T02:10:01.606Z,99.09
2023-06-11T02:12:28.078Z,99.91
2023-06-11T02:14:54.646Z,99.10
2023-06-11T02:17:21.343Z,99.12
2023-06-11T02:19:48.498Z,98.55
2023-06-11T02:22:15.017Z,98.51
2023-06-11T02:24:41.694Z,98.48
2023-06-11T02:27:08.222Z,97.55
2023-06-11T02:29:34.965Z,97.22
2023-06-11T02:32:01.787Z,96.32
2023-06-11T02:34:28.358Z,96.36
2023-06-11T02:36:55.454Z,97.10
2023-06-11T02:39:21.977Z,98.11
2023-06-11T02:41:48.512Z,97.19
2023-06-11T02:44:15.105Z,95.28
2023-06-11T02:46:41.758Z,92.41
2023-06-11T02:49:08.438Z,91.98
2023-06-11T02:51:34.978Z,89.79
2023-06-11T02:54:01.465Z,90.92
2023-06-11T02:56:27.943Z,88.35
2023-06-11T02:58:54.530Z,87.41
2023-06-11T03:01:21.151Z,88.75
2023-06-11T03:03:47.705Z,88.37
2023-06-11T03:06:14.221Z,87.20
2023-06-11T03:08:40.741Z,87.59
2023-06-11T03:11:07.322Z,88.08
2023-06-11T03:13:33.823Z,88.69
2023-06-11T03:16:00.516Z,88.77
2023-06-11T03:18:27.058Z,89.40
2023-06-11T03:20:53.630Z,87.04
2023-06-11T03:23:20.131Z,87.27
2023-06-11T03:25:46.694Z,86.60
2023-06-11T03:28:13.238Z,86.96
2023-06-11T03:30:39.795Z,87.09
2023-06-11T03:33:06.327Z,90.70
2023-06-11T03:35:32.901Z,91.62
2023-06-11T03:37:59.541Z,90.75
2023-06-11T03:40:26.238Z,88.04
2023-06-11T03:42:52.739Z,88.99
2023-06-11T03:45:19.344Z,89.14
2023-06-11T03:47:45.945Z,90.03
2023-06-11T03:50:13.578Z,89.50
2023-06-11T03:52:40.133Z,90.45
2023-06-11T03:55:07.380Z,92.47
2023-06-11T03:57:34.013Z,90.37
2023-06-11T04:00:00.768Z,93.50
2023-06-11T04:02:27.851Z,90.49
2023-06-11T04:04:54.996Z,89.15
2023-06-11T04:07:21.534Z,87.79
2023-06-11T04:09:48.140Z,87.29
2023-06-11T04:12:14.756Z,86.75
2023-06-11T04:14:41.540Z,86.97
2023-06-11T04:17:08.579Z,88.25
2023-06-11T04:19:35.890Z,87.08
2023-06-11T04:22:02.470Z,87.43
2023-06-11T04:24:29.035Z,87.39
2023-06-11T04:26:58.020Z,89.04
2023-06-11T04:29:24.499Z,89.50
2023-06-11T04:31:51.742Z,90.13
2023-06-11T04:34:18.436Z,88.06
2023-06-11T04:36:45.413Z,89.10
2023-06-11T04:39:12.030Z,86.94
2023-06-11T04:41:38.974Z,86.48
2023-06-11T04:44:05.833Z,85.08
2023-06-11T04:46:35.813Z,85.26
2023-06-11T04:49:05.276Z,84.32
2023-06-11T04:51:33.722Z,82.68
2023-06-11T04:54:08.655Z,82.42
2023-06-11T04:56:35.420Z,82.52
2023-06-11T04:59:06.554Z,81.32
2023-06-11T05:01:33.679Z,83.28
2023-06-11T05:04:00.351Z,81.24
2023-06-11T05:06:26.912Z,80.65
2023-06-11T05:08:53.470Z,78.78
2023-06-11T05:11:20.129Z,78.34
2023-06-11T05:13:46.720Z,78.07
2023-06-11T05:16:13.962Z,77.50
2023-06-11T05:18:40.614Z,78.43
2023-06-11T05:21:07.845Z,78.48
2023-06-11T05:23:34.593Z,79.20
2023-06-11T05:26:12.838Z,78.99
2023-06-11T05:28:40.128Z,80.30
2023-06-11T05:31:07.570Z,78.54
2023-06-11T05:33:34.118Z,78.44
2023-06-11T05:36:00.697Z,76.30
2023-06-11T05:38:27.289Z,76.57
2023-06-11T05:40:53.852Z,73.16
2023-06-11T05:43:20.521Z,72.56
2023-06-11T05:45:51.179Z,71.55
2023-06-11T05:48:18.203Z,70.87
2023-06-11T05:50:44.878Z,71.75
2023-06-11T05:53:11.533Z,69.27
2023-06-11T05:55:39.214Z,68.95
2023-06-11T05:58:06.820Z,66.21
2023-06-11T06:00:33.326Z,63.79
2023-06-11T06:03:00.015Z,62.97
2023-06-11T06:05:26.961Z,63.04
2023-06-11T06:07:53.669Z,65.27
2023-06-11T06:10:20.302Z,62.56
2023-06-11T06:12:46.794Z,61.58
2023-06-11T06:15:13.470Z,62.52
2023-06-11T06:17:40.133Z,61.76
2023-06-11T06:20:07.289Z,59.38
2023-06-11T06:22:34.312Z,59.25
2023-06-11T06:25:02.021Z,58.58
2023-06-11T06:27:28.832Z,57.10
2023-06-11T06:29:55.350Z,55.34
2023-06-11T06:32:21.909Z,55.94
2023-06-11T06:34:48.421Z,54.20
2023-06-11T06:37:14.962Z,54.66
2023-06-11T06:39:41.973Z,53.85
2023-06-11T06:42:08.803Z,52.48
2023-06-11T06:44:35.498Z,51.91
2023-06-11T06:47:02.357Z,51.15
2023-06-11T06:49:28.954Z,50.21
2023-06-11T06:51:55.479Z,47.95
2023-06-11T06:54:22.019Z,47.59
2023-06-11T06:56:49.008Z,47.69
2023-06-11T06:59:17.102Z,46.13
2023-06-11T07:01:43.641Z,45.02
2023-06-11T07:04:10.221Z,43.55
2023-06-11T07:06:37.605Z,42.74
2023-06-11T07:09:04.498Z,41.43
2023-06-11T07:11:31.080Z,41.66
2023-06-11T07:13:57.624Z,43.87
2023-06-11T07:16:24.251Z,42.27
2023-06-11T07:18:50.996Z,41.53
2023-06-11T07:21:18.277Z,40.80
2023-06-11T07:23:44.869Z,40.23
2023-06-11T07:26:14.556Z,40.72
2023-06-11T07:28:42.010Z,39.17
2023-06-11T07:31:09.491Z,41.31
2023-06-11T07:33:36.274Z,39.59
2023-06-11T07:36:03.088Z,37.42
2023-06-11T07:38:30.840Z,34.74
2023-06-11T07:40:57.491Z,33.55
2023-06-11T07:43:24.027Z,35.18
2023-06-11T07:45:50.812Z,35.52
2023-06-11T07:48:17.332Z,35.50
2023-06-11T07:50:44.041Z,35.22
2023-06-11T07:53:13.906Z,37.14
2023-06-11T07:55:40.492Z,35.74
2023-06-11T07:58:07.036Z,34.97
2023-06-11T08:00:33.686Z,37.64
2023-06-11T08:03:00.214Z,38.00
2023-06-11T08:05:27.488Z,37.23
2023-06-11T08:07:54.267Z,40.00
2023-06-11T08:10:21.619Z,37.09
2023-06-11T08:12:48.152Z,36.85
2023-06-11T08:15:14.759Z,37.34
2023-06-11T08:17:41.563Z,35.78
2023-06-11T08:20:09.002Z,35.45
2023-06-11T08:22:36.099Z,34.39
2023-06-11T08:25:02.984Z,34.22
2023-06-11T08:27:29.561Z,34.80
2023-06-11T08:29:56.073Z,35.17
2023-06-11T08:32:22.795Z,34.98
2023-06-11T08:34:49.455Z,35.46
2023-06-11T08:37:16.459Z,35.77
2023-06-11T08:39:43.146Z,34.02
2023-06-11T08:42:09.786Z,33.62
2023-06-11T08:44:36.868Z,33.37
2023-06-11T08:47:04.930Z,32.41
2023-06-11T08:49:32.315Z,31.95
2023-06-11T08:52:04.213Z,30.96
2023-06-11T08:54:31.011Z,31.16
2023-06-11T08:56:57.683Z,32.38
2023-06-11T08:59:24.314Z,32.01
2023-06-11T09:01:53.919Z,30.09
2023-06-11T09:04:21.970Z,30.23
2023-06-11T09:06:53.002Z,30.00
2023-06-11T09:09:19.891Z,27.51
2023-06-11T09:11:47.195Z,28.01
2023-06-11T09:14:13.763Z,24.88
2023-06-11T09:16:42.103Z,25.97
2023-06-11T09:19:19.805Z,27.25
2023-06-11T09:21:54.458Z,29.07
2023-06-11T09:24:22.376Z,31.56
2023-06-11T09:26:57.948Z,30.02
2023-06-11T09:29:28.725Z,30.69
2023-06-11T09:32:23.761Z,31.28
2023-06-11T09:34:58.583Z,33.37
2023-06-11T09:37:25.186Z,31.43
2023-06-11T09:39:51.770Z,29.06
2023-06-11T09:42:28.726Z,29.32
2023-06-11T09:45:00.661Z,28.79
2023-06-11T09:47:32.200Z,29.22
2023-06-11T09:50:03.270Z,28.59
2023-06-11T09:52:30.474Z,27.00
2023-06-11T09:54:57.798Z,27.95
2023-06-11T09:57:25.365Z,26.99
2023-06-11T09:59:52.204Z,27.74
2023-06-11T10:02:18.779Z,26.34
2023-06-11T10:04:45.915Z,26.50
2023-06-11T10:07:12.795Z,27.36
2023-06-11T10:09:43.022Z,27.65
2023-06-11T10:12:10.243Z,27.60
2023-06-11T10:14:38.315Z,26.20
2023-06-11T10:17:09.309Z,26.39
2023-06-11T10:19:38.141Z,27.57
2023-06-11T10:22:04.977Z,28.17
2023-06-11T10:24:32.067Z,29.38
2023-06-11T10:27:05.045Z,28.83
2023-06-11T10:29:46.796Z,25.87
2023-06-11T10:32:21.432Z,25.67
2023-06-11T10:34:56.320Z,24.65
2023-06-11T10:37:36.606Z,26.21
2023-06-11T10:40:04.404Z,25.98
2023-06-11T10:42:43.138Z,25.47
2023-06-11T10:45:15.882Z,24.89
2023-06-11T10:47:42.597Z,24.71
2023-06-11T10:50:11.683Z,24.66
2023-06-11T10:53:13.243Z,23.40
2023-06-11T10:55:48.305Z,22.12
2023-06-11T10:58:24.502Z,23.02
2023-06-11T11:00:53.522Z,24.80
2023-06-11T11:03:25.803Z,24.95
2023-06-11T11:05:53.492Z,28.95
2023-06-11T11:08:25.751Z,25.45
2023-06-11T11:10:57.143Z,26.89
2023-06-11T11:13:24.497Z,23.47
2023-06-11T11:15:52.008Z,25.33
2023-06-11T11:18:18.980Z,23.73
2023-06-11T11:20:46.334Z,26.51
2023-06-11T11:23:12.789Z,25.03
2023-06-11T11:25:39.968Z,26.68
2023-06-11T11:28:07.187Z,27.65
2023-06-11T11:30:33.960Z,27.01
2023-06-11T11:33:00.791Z,26.23
2023-06-11T11:35:29.663Z,24.58
2023-06-11T11:37:56.545Z,23.98
2023-06-11T11:40:23.594Z,24.19
2023-06-11T11:42:56.584Z,23.36
2023-06-11T11:45:30.584Z,24.40
2023-06-11T11:47:57.295Z,24.33
2023-06-11T11:50:28.522Z,25.05
2023-06-11T11:53:04.035Z,24.69
2023-06-11T11:55:33.066Z,23.88
2023-06-11T11:58:06.379Z,24.73
2023-06-11T12:00:33.816Z,26.18
2023-06-11T12:03:09.167Z,24.45
2023-06-11T12:05:40.005Z,26.06
2023-06-11T12:08:07.819Z,24.93
2023-06-11T12:10:34.678Z,24.93
2023-06-11T12:13:02.259Z,23.86
2023-06-11T12:15:29.191Z,25.46
2023-06-11T12:17:55.899Z,26.41
2023-06-11T12:20:23.156Z,30.23
2023-06-11T12:22:50.390Z,30.27
2023-06-11T12:25:17.033Z,28.29
2023-06-11T12:27:45.582Z,30.73
2023-06-11T12:30:13.114Z,30.88
2023-06-11T12:32:42.042Z,31.31
2023-06-11T12:35:09.310Z,29.12
2023-06-11T12:37:37.440Z,29.47
2023-06-11T12:40:05.845Z,29.19
2023-06-11T12:42:33.709Z,29.00
2023-06-11T12:45:01.607Z,27.37
2023-06-11T12:47:28.250Z,27.15
2023-06-11T12:49:55.320Z,30.14
2023-06-11T12:52:22.112Z,31.65
2023-06-11T12:54:48.659Z,29.89
2023-06-11T12:57:16.427Z,27.41
2023-06-11T12:59:43.421Z,26.51
2023-06-11T13:02:15.569Z,24.10
2023-06-11T13:04:44.253Z,25.65
2023-06-11T13:07:10.901Z,27.79
2023-06-11T13:09:37.888Z,28.94
2023-06-11T13:12:04.744Z,29.85
2023-06-11T13:14:31.280Z,29.95
2023-06-11T13:16:57.836Z,27.97
2023-06-11T13:19:24.399Z,27.27
2023-06-11T13:21:50.995Z,28.39
2023-06-11T13:24:17.639Z,26.76
2023-06-11T13:26:44.327Z,28.86
2023-06-11T13:29:10.904Z,28.65
2023-06-11T13:31:40.495Z,29.21
2023-06-11T13:34:08.487Z,27.76
2023-06-11T13:36:37.007Z,27.79
2023-06-11T13:39:08.070Z,27.13
2023-06-11T13:41:34.728Z,25.11
2023-06-11T13:44:01.305Z,24.54
2023-06-11T13:46:28.009Z,24.27
2023-06-11T13:48:54.568Z,24.26
2023-06-11T13:51:22.073Z,25.44
2023-06-11T13:53:48.683Z,27.18
2023-06-11T13:56:15.274Z,27.48
2023-06-11T13:58:42.277Z,28.04
2023-06-11T14:01:08.867Z,30.74
2023-06-11T14:03:35.879Z,29.92
2023-06-11T14:06:03.669Z,29.97
2023-06-11T14:08:30.957Z,30.51
2023-06-11T14:10:57.708Z,28.73
2023-06-11T14:13:24.360Z,27.97
2023-06-11T14:15:50.984Z,27.59
2023-06-11T14:18:18.536Z,27.77
2023-06-11T14:20:45.144Z,27.43
2023-06-11T14:23:11.706Z,28.50
2023-06-11T14:25:38.198Z,29.23
2023-06-11T14:28:04.945Z,28.95
2023-06-11T14:30:31.495Z,30.08
2023-06-11T14:32:59.130Z,28.69
2023-06-11T14:35:26.254Z,28.40
2023-06-11T14:37:55.469Z,29.11
2023-06-11T14:40:23.855Z,28.80
2023-06-11T14:42:50.360Z,30.22
2023-06-11T14:45:16.952Z,30.74
2023-06-11T14:47:43.477Z,28.99
2023-06-11T14:50:10.556Z,31.28
2023-06-11T14:52:37.367Z,29.32
2023-06-11T14:55:04.111Z,29.93
2023-06-11T14:57:30.641Z,29.24
2023-06-11T14:59:57.371Z,30.66
2023-06-11T15:02:23.890Z,29.81
2023-06-11T15:04:50.421Z,30.32
2023-06-11T15:07:33.237Z,31.08
2023-06-11T15:10:05.375Z,29.87
2023-06-11T15:12:32.328Z,29.04
2023-06-11T15:15:01.852Z,29.77
2023-06-11T15:17:31.084Z,30.36
2023-06-11T15:19:59.798Z,31.60
2023-06-11T15:22:26.563Z,31.24
2023-06-11T15:24:53.198Z,31.49
2023-06-11T15:27:19.864Z,32.08
2023-06-11T15:29:46.496Z,30.89
2023-06-11T15:32:15.323Z,31.27
2023-06-11T15:34:42.846Z,31.23
2023-06-11T15:37:09.520Z,31.23
2023-06-11T15:39:36.006Z,31.79
2023-06-11T15:42:03.050Z,31.63
2023-06-11T15:44:29.698Z,31.51
2023-06-11T15:46:56.229Z,31.44
2023-06-11T15:49:22.770Z,33.46
2023-06-11T15:51:49.577Z,32.98
2023-06-11T15:54:16.450Z,32.03
2023-06-11T15:56:47.653Z,32.00
2023-06-11T15:59:15.185Z,31.54
2023-06-11T16:01:43.523Z,31.68
2023-06-11T16:04:10.519Z,33.65
2023-06-11T16:06:37.199Z,32.27
2023-06-11T16:09:03.838Z,33.71
2023-06-11T16:11:30.446Z,33.34
2023-06-11T16:13:57.024Z,33.46
2023-06-11T16:16:23.570Z,32.85
2023-06-11T16:18:50.248Z,32.62
2023-06-11T16:21:17.185Z,32.12
2023-06-11T16:23:43.973Z,31.48
2023-06-11T16:26:10.696Z,32.05
2023-06-11T16:28:37.364Z,32.23
2023-06-11T16:31:04.077Z,32.42
2023-06-11T16:33:43.780Z,33.97
2023-06-11T16:36:17.581Z,33.17
2023-06-11T16:38:44.217Z,33.01
2023-06-11T16:41:11.752Z,32.75
2023-06-11T16:43:39.529Z,33.43
2023-06-11T16:46:07.893Z,32.62
2023-06-11T16:48:34.423Z,32.97
2023-06-11T16:51:00.945Z,33.28
2023-06-11T16:53:27.437Z,32.80
2023-06-11T16:55:53.995Z,32.71
2023-06-11T16:58:20.728Z,33.42
2023-06-11T17:00:47.304Z,33.63
2023-06-11T17:03:14.062Z,33.59
2023-06-11T17:05:40.799Z,33.33
2023-06-11T17:08:07.382Z,34.28
2023-06-11T17:10:35.326Z,33.18
2023-06-11T17:13:02.010Z,34.78
2023-06-11T17:15:28.639Z,33.49
2023-06-11T17:17:55.406Z,34.73
2023-06-11T17:20:22.045Z,34.28
2023-06-11T17:22:48.733Z,34.86
2023-06-11T17:25:15.941Z,33.95
2023-06-11T17:27:42.658Z,34.03
2023-06-11T17:30:09.814Z,34.58
2023-06-11T17:32:36.743Z,34.10
2023-06-11T17:35:04.199Z,33.06
2023-06-11T17:37:30.804Z,33.69
2023-06-11T17:39:57.558Z,34.11
2023-06-11T17:42:24.097Z,34.89
2023-06-11T17:44:50.881Z,33.93
2023-06-11T17:47:17.682Z,34.03
2023-06-11T17:49:47.646Z,33.30
2023-06-11T17:52:15.993Z,33.50
2023-06-11T17:54:42.567Z,33.68
2023-06-11T17:57:09.260Z,33.85
2023-06-11T17:59:35.776Z,33.82
2023-06-11T18:02:02.530Z,33.76
2023-06-11T18:04:29.213Z,34.21
2023-06-11T18:06:55.700Z,34.76
2023-06-11T18:09:22.231Z,35.23
2023-06-11T18:11:48.749Z,36.77
2023-06-11T18:14:15.358Z,36.26
2023-06-11T18:16:41.985Z,36.18
2023-06-11T18:19:08.606Z,36.15
2023-06-11T18:21:35.132Z,36.90
2023-06-11T18:24:01.754Z,37.41
2023-06-11T18:26:28.386Z,36.33
2023-06-11T18:28:55.044Z,36.67
2023-06-11T18:31:24.041Z,38.74
2023-06-11T18:33:50.632Z,37.92
2023-06-11T18:36:17.244Z,37.45
2023-06-11T18:38:43.794Z,36.50
2023-06-11T18:41:10.354Z,36.58
2023-06-11T18:43:36.862Z,36.65
2023-06-11T18:46:03.452Z,36.07
2023-06-11T18:48:30.110Z,36.15
2023-06-11T18:50:56.679Z,35.90
2023-06-11T18:53:23.208Z,35.46
2023-06-11T18:55:49.744Z,35.37
2023-06-11T18:58:18.292Z,35.62
2023-06-11T19:00:45.359Z,35.65
2023-06-11T19:03:12.109Z,36.15
2023-06-11T19:05:38.777Z,36.66
2023-06-11T19:08:07.292Z,35.98
2023-06-11T19:10:35.279Z,36.30
2023-06-11T19:13:03.345Z,36.42
2023-06-11T19:15:29.909Z,36.79
2023-06-11T19:17:57.108Z,36.84
2023-06-11T19:20:27.585Z,37.03
2023-06-11T19:22:54.950Z,37.08
2023-06-11T19:25:21.653Z,37.77
2023-06-11T19:27:48.169Z,37.72
2023-06-11T19:30:15.438Z,37.17
2023-06-11T19:32:42.741Z,37.95
2023-06-11T19:35:09.627Z,38.42
2023-06-11T19:37:36.190Z,38.00
2023-06-11T19:40:03.472Z,37.60
2023-06-11T19:42:29.995Z,38.50
2023-06-11T19:44:56.847Z,38.76
2023-06-11T19:47:23.517Z,38.10
2023-06-11T19:49:50.245Z,38.40
2023-06-11T19:52:16.765Z,38.52
2023-06-11T19:54:51.508Z,38.66
2023-06-11T19:57:19.627Z,38.60
2023-06-11T19:59:46.456Z,38.71
2023-06-11T20:02:13.101Z,39.11
2023-06-11T20:04:39.851Z,38.81
2023-06-11T20:07:08.146Z,38.79
2023-06-11T20:09:35.954Z,38.30
2023-06-11T20:12:08.500Z,38.50
2023-06-11T20:14:36.471Z,38.66
2023-06-11T20:17:03.971Z,38.53
2023-06-11T20:19:30.570Z,39.29
2023-06-11T20:22:01.362Z,38.66
2023-06-11T20:24:28.284Z,39.04
2023-06-11T20:26:55.192Z,39.34
2023-06-11T20:29:23.896Z,38.53
2023-06-11T20:31:51.713Z,39.48
2023-06-11T20:34:18.417Z,39.24
2023-06-11T20:36:45.052Z,39.37
2023-06-11T20:39:11.675Z,39.18
2023-06-11T20:41:38.207Z,40.76
2023-06-11T20:44:04.928Z,40.32
2023-06-11T20:46:31.642Z,40.65
2023-06-11T20:48:58.539Z,41.56
2023-06-11T20:51:25.431Z,40.90
2023-06-11T20:53:52.185Z,41.52
2023-06-11T20:56:20.225Z,41.11
2023-06-11T20:58:47.049Z,41.16
2023-06-11T21:01:13.961Z,41.70
2023-06-11T21:03:40.842Z,40.92
2023-06-11T21:06:07.919Z,41.16
2023-06-11T21:08:34.421Z,40.96
2023-06-11T21:11:01.087Z,40.79
2023-06-11T21:13:27.793Z,41.48
2023-06-11T21:15:54.487Z,40.72
2023-06-11T21:18:21.320Z,40.92
2023-06-11T21:20:47.983Z,41.24
2023-06-11T21:23:14.778Z,41.21
2023-06-11T21:25:41.329Z,41.01
2023-06-11T21:28:07.967Z,41.35
2023-06-11T21:30:35.881Z,41.58
2023-06-11T21:33:02.451Z,41.50
2023-06-11T21:35:29.001Z,41.95
2023-06-11T21:37:55.635Z,42.09
2023-06-11T21:40:22.353Z,41.74
2023-06-11T21:42:48.896Z,41.47
2023-06-11T21:45:15.929Z,42.18
2023-06-11T21:47:42.553Z,41.92
2023-06-11T21:50:09.917Z,41.86
2023-06-11T21:52:39.081Z,42.28
2023-06-11T21:55:09.062Z,43.63
2023-06-11T21:57:35.741Z,42.67
2023-06-11T22:00:11.938Z,42.59
2023-06-11T22:02:40.922Z,42.40
2023-06-11T22:05:08.460Z,42.52
2023-06-11T22:07:34.976Z,42.44
2023-06-11T22:10:01.756Z,42.32
2023-06-11T22:12:28.294Z,42.43
2023-06-11T22:14:54.779Z,41.93
2023-06-11T22:17:32.969Z,41.92
2023-06-11T22:20:08.255Z,40.98
2023-06-11T22:22:37.572Z,41.55
2023-06-11T22:25:12.067Z,41.20
2023-06-11T22:27:41.976Z,41.26
2023-06-11T22:30:10.160Z,41.46
2023-06-11T22:32:37.366Z,42.10
2023-06-11T22:35:04.413Z,42.42
2023-06-11T22:37:31.107Z,41.64
2023-06-11T22:39:57.697Z,41.66
2023-06-11T22:42:24.175Z,42.08
2023-06-11T22:44:50.906Z,42.12
2023-06-11T22:47:17.513Z,42.32
2023-06-11T22:49:44.048Z,41.90
2023-06-11T22:52:10.628Z,42.65
2023-06-11T22:54:39.294Z,42.62
2023-06-11T22:57:09.473Z,42.87
2023-06-11T22:59:35.971Z,42.67
2023-06-11T23:02:02.600Z,41.97
2023-06-11T23:04:29.708Z,42.01
2023-06-11T23:06:56.856Z,42.79
2023-06-11T23:09:23.696Z,41.60
2023-06-11T23:11:50.270Z,40.78
2023-06-11T23:14:17.079Z,40.86
2023-06-11T23:16:48.969Z,40.38
2023-06-11T23:19:23.618Z,40.05
2023-06-11T23:21:50.400Z,40.18
2023-06-11T23:24:18.608Z,40.26
2023-06-11T23:26:46.305Z,41.77
2023-06-11T23:29:16.361Z,42.99
2023-06-11T23:31:43.621Z,42.31
2023-06-11T23:34:11.205Z,44.22
2023-06-11T23:36:40.714Z,44.21
2023-06-11T23:39:09.245Z,45.21
2023-06-11T23:41:35.963Z,44.64
2023-06-11T23:44:02.596Z,45.79
2023-06-11T23:46:29.293Z,44.76
2023-06-11T23:48:56.030Z,45.47
2023-06-11T23:51:23.011Z,45.98
2023-06-11T23:53:49.513Z,46.51
2023-06-11T23:56:16.107Z,47.67
2023-06-11T23:58:42.638Z,46.90
